Cedarville, Michigan
Current Conditions -  °F | °C
As of 9:36 PM on Saturday 20 Dec 2014 (Local Time) from KMCD Reporting Station
Overcast Overcast  
Wind Chill: 21°   Ceiling: 3000
Heat Index: 27°   Visibility: 10mi
Dew Point: 22°   Wind: 5mph
Humidity: 81%   Direction: 150°SSE
Pressure: 30.25"   Gusts: NA
Location:  46°N, 84.36°W
Report Text: KMCD 210236Z AUTO 15004KT 10SM OVC030 M03/M06 A3025 RMK AO2 T10301058
Loading
Personal Weather Stations






























Interactive Weather Map New forecast layout! Learn more

10-Day Weather Forecast

Advertisements
Track Severe Weather on mobile